createdAt,value
2023-04-21T00:02:01.460Z,57.30
2023-04-21T00:04:29.034Z,57.40
2023-04-21T00:06:56.198Z,57.40
2023-04-21T00:09:23.205Z,57.50
2023-04-21T00:11:50.308Z,57.50
2023-04-21T00:14:17.888Z,57.60
2023-04-21T00:16:45.096Z,57.80
2023-04-21T00:19:14.286Z,57.70
2023-04-21T00:21:41.242Z,57.70
2023-04-21T00:24:08.806Z,57.80
2023-04-21T00:26:35.840Z,57.90
2023-04-21T00:29:02.835Z,57.90
2023-04-21T00:31:29.989Z,58.10
2023-04-21T00:33:57.194Z,58.20
2023-04-21T00:36:25.000Z,58.30
2023-04-21T00:38:51.904Z,58.40
2023-04-21T00:41:18.834Z,58.50
2023-04-21T00:44:08.026Z,58.40
2023-04-21T00:46:36.652Z,58.10
2023-04-21T00:49:08.043Z,58.30
2023-04-21T00:51:36.695Z,58.30
2023-04-21T00:54:06.221Z,58.20
2023-04-21T00:56:34.954Z,58.40
2023-04-21T00:59:02.766Z,58.40
2023-04-21T01:01:31.355Z,58.40
2023-04-21T01:04:01.953Z,58.40
2023-04-21T01:06:30.320Z,59.00
2023-04-21T01:08:57.313Z,58.70
2023-04-21T01:11:24.733Z,59.40
2023-04-21T01:13:55.689Z,59.00
2023-04-21T01:16:24.208Z,59.10
2023-04-21T01:18:54.615Z,59.20
2023-04-21T01:21:22.130Z,59.20
2023-04-21T01:23:49.158Z,59.30
2023-04-21T01:26:23.658Z,59.30
2023-04-21T01:28:50.766Z,59.30
2023-04-21T01:31:18.453Z,59.40
2023-04-21T01:33:45.813Z,59.60
2023-04-21T01:36:13.068Z,59.90
2023-04-21T01:38:41.784Z,59.90
2023-04-21T01:41:09.464Z,60.00
2023-04-21T01:43:37.234Z,59.90
2023-04-21T01:46:07.708Z,59.70
2023-04-21T01:48:36.684Z,59.40
2023-04-21T01:51:03.750Z,59.20
2023-04-21T01:53:30.804Z,59.10
2023-04-21T01:55:57.828Z,59.00
2023-04-21T01:58:26.371Z,59.20
2023-04-21T02:00:53.301Z,59.50
2023-04-21T02:03:20.568Z,59.50
2023-04-21T02:05:47.632Z,59.60
2023-04-21T02:08:14.630Z,59.70
2023-04-21T02:10:41.816Z,59.70
2023-04-21T02:13:08.773Z,59.70
2023-04-21T02:15:37.840Z,59.70
2023-04-21T02:18:05.104Z,59.50
2023-04-21T02:20:32.518Z,59.40
2023-04-21T02:22:59.587Z,59.30
2023-04-21T02:25:26.587Z,59.20
2023-04-21T02:27:53.517Z,59.20
2023-04-21T02:30:20.666Z,59.30
2023-04-21T02:32:47.706Z,59.30
2023-04-21T02:35:14.730Z,59.30
2023-04-21T02:37:41.571Z,59.10
2023-04-21T02:40:09.437Z,59.00
2023-04-21T02:42:36.372Z,59.00
2023-04-21T02:45:03.493Z,59.00
2023-04-21T02:47:30.393Z,59.30
2023-04-21T02:49:57.337Z,58.80
2023-04-21T02:52:24.932Z,58.70
2023-04-21T02:54:51.932Z,58.80
2023-04-21T02:57:18.827Z,58.80
2023-04-21T02:59:46.120Z,58.80
2023-04-21T03:02:13.077Z,58.90
2023-04-21T03:04:40.133Z,59.00
2023-04-21T03:07:12.798Z,59.20
2023-04-21T03:09:40.717Z,59.30
2023-04-21T03:12:07.622Z,59.50
2023-04-21T03:14:34.496Z,59.60
2023-04-21T03:17:01.390Z,59.70
2023-04-21T03:19:28.234Z,59.90
2023-04-21T03:21:55.224Z,60.00
2023-04-21T03:24:22.168Z,60.10
2023-04-21T03:26:49.020Z,60.30
2023-04-21T03:29:15.942Z,60.40
2023-04-21T03:31:42.959Z,60.40
2023-04-21T03:34:09.937Z,60.40
2023-04-21T03:36:36.817Z,60.40
2023-04-21T03:39:18.768Z,60.40
2023-04-21T03:41:46.907Z,60.20
2023-04-21T03:44:13.834Z,60.20
2023-04-21T03:46:40.706Z,60.20
2023-04-21T03:49:07.535Z,60.30
2023-04-21T03:51:34.610Z,60.30
2023-04-21T03:54:01.879Z,60.40
2023-04-21T03:56:28.767Z,60.50
2023-04-21T03:58:55.681Z,60.80
2023-04-21T04:01:23.100Z,61.00
2023-04-21T04:03:50.083Z,61.10
2023-04-21T04:06:17.068Z,61.10
2023-04-21T04:08:43.950Z,61.10
2023-04-21T04:11:10.788Z,61.10
2023-04-21T04:13:37.718Z,61.00
2023-04-21T04:16:04.950Z,61.00
2023-04-21T04:18:31.891Z,61.00
2023-04-21T04:20:58.774Z,60.90
2023-04-21T04:23:26.208Z,60.80
2023-04-21T04:25:53.042Z,60.60
2023-04-21T04:28:19.969Z,60.50
2023-04-21T04:30:46.877Z,60.30
2023-04-21T04:33:13.696Z,60.20
2023-04-21T04:35:40.594Z,60.20
2023-04-21T04:38:07.744Z,60.10
2023-04-21T04:40:34.721Z,60.20
2023-04-21T04:43:02.744Z,60.20
2023-04-21T04:45:33.058Z,60.30
2023-04-21T04:48:00.411Z,60.30
2023-04-21T04:50:27.694Z,60.30
2023-04-21T04:52:54.650Z,60.40
2023-04-21T04:55:22.241Z,60.50
2023-04-21T04:57:49.197Z,60.40
2023-04-21T05:00:16.263Z,60.50
2023-04-21T05:02:43.243Z,60.40
2023-04-21T05:05:10.436Z,60.50
2023-04-21T05:07:37.445Z,60.50
2023-04-21T05:10:04.787Z,60.50
2023-04-21T05:12:34.800Z,60.40
2023-04-21T05:15:01.757Z,60.40
2023-04-21T05:17:31.254Z,60.40
2023-04-21T05:19:58.275Z,60.40
2023-04-21T05:22:26.022Z,60.30
2023-04-21T05:24:53.718Z,60.20
2023-04-21T05:27:20.646Z,60.10
2023-04-21T05:29:47.604Z,60.00
2023-04-21T05:32:14.689Z,60.00
2023-04-21T05:34:41.700Z,59.90
2023-04-21T05:37:11.800Z,60.00
2023-04-21T05:39:38.777Z,60.10
2023-04-21T05:42:05.826Z,60.30
2023-04-21T05:44:32.685Z,60.30
2023-04-21T05:46:59.557Z,60.50
2023-04-21T05:49:26.449Z,60.70
2023-04-21T05:51:53.277Z,60.90
2023-04-21T05:54:20.275Z,61.00
2023-04-21T05:56:48.460Z,61.10
2023-04-21T05:59:15.862Z,61.20
2023-04-21T06:01:43.362Z,61.20
2023-04-21T06:04:10.634Z,61.20
2023-04-21T06:06:37.646Z,61.30
2023-04-21T06:09:05.562Z,61.40
2023-04-21T06:11:33.471Z,61.40
2023-04-21T06:14:01.209Z,61.50
2023-04-21T06:16:28.180Z,61.60
2023-04-21T06:18:55.184Z,61.70
2023-04-21T06:21:22.126Z,61.70
2023-04-21T06:23:48.977Z,61.90
2023-04-21T06:26:15.954Z,62.00
2023-04-21T06:28:42.893Z,62.00
2023-04-21T06:31:15.213Z,62.00
2023-04-21T06:33:42.360Z,62.00
2023-04-21T06:36:09.272Z,62.00
2023-04-21T06:38:36.215Z,62.00
2023-04-21T06:41:05.188Z,62.10
2023-04-21T06:43:32.061Z,62.00
2023-04-21T06:45:58.900Z,61.90
2023-04-21T06:48:26.475Z,61.90
2023-04-21T06:50:53.396Z,62.00
2023-04-21T06:53:21.737Z,61.80
2023-04-21T06:55:48.878Z,61.90
2023-04-21T06:58:15.817Z,61.90
2023-04-21T07:00:42.743Z,62.00
2023-04-21T07:03:09.713Z,62.00
2023-04-21T07:05:36.716Z,61.90
2023-04-21T07:08:03.714Z,62.00
2023-04-21T07:10:31.374Z,62.00
2023-04-21T07:12:58.274Z,61.90
2023-04-21T07:15:25.260Z,61.80
2023-04-21T07:17:52.275Z,61.90
2023-04-21T07:20:19.177Z,61.90
2023-04-21T07:22:46.053Z,61.80
2023-04-21T07:25:12.970Z,61.90
2023-04-21T07:27:40.095Z,62.00
2023-04-21T07:30:07.615Z,61.80
2023-04-21T07:32:35.224Z,61.60
2023-04-21T07:35:03.054Z,61.50
2023-04-21T07:37:30.080Z,61.30
2023-04-21T07:39:57.045Z,61.20
2023-04-21T07:42:24.573Z,61.20
2023-04-21T07:44:51.473Z,61.00
2023-04-21T07:47:18.611Z,60.90
2023-04-21T07:49:45.755Z,60.90
2023-04-21T07:52:12.797Z,60.50
2023-04-21T07:54:39.743Z,60.30
2023-04-21T07:57:07.365Z,60.20
2023-04-21T07:59:34.242Z,60.00
2023-04-21T08:02:01.503Z,59.90
2023-04-21T08:04:28.557Z,60.20
2023-04-21T08:06:55.832Z,60.00
2023-04-21T08:09:23.365Z,59.20
2023-04-21T08:11:50.394Z,59.40
2023-04-21T08:14:17.665Z,59.00
2023-04-21T08:16:46.297Z,58.70
2023-04-21T08:19:13.337Z,58.50
2023-04-21T08:21:40.713Z,58.50
2023-04-21T08:24:07.740Z,58.50
2023-04-21T08:26:35.910Z,58.90
2023-04-21T08:29:04.364Z,60.50
2023-04-21T08:31:31.929Z,60.70
2023-04-21T08:34:02.762Z,60.90
2023-04-21T08:36:30.818Z,59.90
2023-04-21T08:38:58.135Z,58.60
2023-04-21T08:41:25.977Z,57.70
2023-04-21T08:43:53.007Z,55.40
2023-04-21T08:46:20.470Z,53.50
2023-04-21T08:48:48.026Z,50.40
2023-04-21T08:51:22.206Z,48.80
2023-04-21T08:53:49.153Z,45.30
2023-04-21T08:56:16.357Z,44.40
2023-04-21T08:58:43.307Z,43.00
2023-04-21T09:01:10.274Z,42.40
2023-04-21T09:03:37.522Z,41.60
2023-04-21T09:06:10.242Z,41.30
2023-04-21T09:08:52.434Z,41.30
2023-04-21T09:11:19.812Z,42.10
2023-04-21T09:13:46.762Z,41.90
2023-04-21T09:16:18.828Z,42.10
2023-04-21T09:18:45.977Z,42.50
2023-04-21T09:21:15.933Z,43.10
2023-04-21T09:23:48.438Z,43.90
2023-04-21T09:26:17.212Z,44.80
2023-04-21T09:28:46.036Z,45.00
2023-04-21T09:31:15.749Z,45.10
2023-04-21T09:33:58.821Z,45.20
2023-04-21T09:36:29.567Z,45.40
2023-04-21T09:41:31.221Z,44.60
2023-04-21T09:44:01.628Z,44.90
2023-04-21T09:46:32.707Z,44.40
2023-04-21T09:49:01.838Z,44.40
2023-04-21T09:51:49.290Z,44.00
2023-04-21T09:56:54.240Z,43.90
2023-04-21T09:59:27.706Z,43.30
2023-04-21T10:01:57.913Z,44.00
2023-04-21T10:04:26.762Z,44.20
2023-04-21T10:06:54.686Z,44.80
2023-04-21T10:09:23.945Z,44.70
2023-04-21T10:11:53.831Z,44.40
2023-04-21T10:14:21.187Z,44.10
2023-04-21T10:17:03.965Z,44.20
2023-04-21T10:19:35.724Z,44.00
2023-04-21T10:22:02.648Z,44.10
2023-04-21T10:24:30.878Z,43.00
2023-04-21T10:27:02.314Z,42.60
2023-04-21T10:29:40.215Z,42.40
2023-04-21T10:32:32.405Z,42.60
2023-04-21T10:34:59.326Z,43.80
2023-04-21T10:37:26.211Z,43.50
2023-04-21T10:39:55.032Z,43.50
2023-04-21T10:42:29.979Z,43.00
2023-04-21T10:44:56.947Z,42.10
2023-04-21T10:47:29.547Z,41.90
2023-04-21T10:50:10.450Z,41.80
2023-04-21T10:52:37.341Z,41.90
2023-04-21T10:55:50.605Z,41.50
2023-04-21T10:58:17.802Z,42.70
2023-04-21T11:00:44.939Z,42.40
2023-04-21T11:03:22.352Z,43.30
2023-04-21T11:05:49.376Z,42.60
2023-04-21T11:08:16.694Z,43.40
2023-04-21T11:10:50.585Z,41.30
2023-04-21T11:13:17.772Z,41.80
2023-04-21T11:16:00.533Z,41.40
2023-04-21T11:18:56.256Z,43.20
2023-04-21T11:21:24.868Z,42.00
2023-04-21T11:23:56.458Z,41.50
2023-04-21T11:26:35.938Z,40.90
2023-04-21T11:29:07.572Z,41.80
2023-04-21T11:31:39.066Z,41.80
2023-04-21T11:34:09.840Z,41.40
2023-04-21T11:36:39.065Z,42.40
2023-04-21T11:39:10.635Z,42.30
2023-04-21T11:41:43.950Z,41.30
2023-04-21T11:44:15.364Z,41.60
2023-04-21T11:46:49.494Z,41.40
2023-04-21T11:49:19.749Z,41.10
2023-04-21T11:51:46.976Z,40.40
2023-04-21T11:54:14.952Z,41.10
2023-04-21T11:56:47.794Z,40.60
2023-04-21T11:59:17.133Z,40.60
2023-04-21T12:01:45.739Z,40.80
2023-04-21T12:04:17.351Z,41.30
2023-04-21T12:06:46.244Z,41.30
2023-04-21T12:09:20.604Z,41.00
2023-04-21T12:11:52.935Z,41.10
2023-04-21T12:14:22.509Z,40.10
2023-04-21T12:16:54.568Z,40.30
2023-04-21T12:19:26.711Z,40.00
2023-04-21T12:21:56.627Z,39.60
2023-04-21T12:24:23.611Z,40.30
2023-04-21T12:26:50.669Z,39.40
2023-04-21T12:29:17.547Z,39.90
2023-04-21T12:31:44.471Z,39.30
2023-04-21T12:34:11.509Z,39.90
2023-04-21T12:36:38.849Z,37.90
2023-04-21T12:39:06.541Z,38.60
2023-04-21T12:41:34.815Z,39.20
2023-04-21T12:44:01.780Z,38.90
2023-04-21T12:46:28.863Z,38.70
2023-04-21T12:48:56.257Z,38.40
2023-04-21T12:51:23.207Z,37.70
2023-04-21T12:53:50.574Z,37.60
2023-04-21T12:56:18.261Z,37.40
2023-04-21T12:58:45.472Z,37.60
2023-04-21T13:01:14.866Z,37.30
2023-04-21T13:03:42.460Z,37.40
2023-04-21T13:06:11.859Z,37.10
2023-04-21T13:08:38.921Z,37.20
2023-04-21T13:11:06.252Z,37.40
2023-04-21T13:13:33.149Z,38.20
2023-04-21T13:16:00.046Z,37.80
2023-04-21T13:18:27.110Z,37.30
2023-04-21T13:20:53.942Z,37.20
2023-04-21T13:23:20.822Z,37.00
2023-04-21T13:25:47.959Z,36.70
2023-04-21T13:28:14.891Z,36.10
2023-04-21T13:30:41.919Z,36.50
2023-04-21T13:33:09.057Z,36.00
2023-04-21T13:35:36.009Z,36.30
2023-04-21T13:38:02.867Z,36.50
2023-04-21T13:40:30.007Z,36.40
2023-04-21T13:42:58.784Z,36.20
2023-04-21T13:45:26.619Z,35.80
2023-04-21T13:47:54.229Z,35.00
2023-04-21T13:50:21.957Z,34.90
2023-04-21T13:52:49.259Z,35.30
2023-04-21T13:55:16.434Z,35.60
2023-04-21T13:57:43.323Z,35.90
2023-04-21T14:00:11.402Z,35.90
2023-04-21T14:02:40.370Z,36.20
2023-04-21T14:05:08.038Z,36.30
2023-04-21T14:07:36.122Z,36.40
2023-04-21T14:10:03.233Z,36.50
2023-04-21T14:12:30.422Z,36.60
2023-04-21T14:14:57.364Z,36.60
2023-04-21T14:17:24.392Z,36.50
2023-04-21T14:19:53.083Z,36.80
2023-04-21T14:22:21.975Z,37.00
2023-04-21T14:24:48.936Z,37.30
2023-04-21T14:27:16.301Z,37.60
2023-04-21T14:29:43.218Z,37.80
2023-04-21T14:32:10.415Z,38.00
2023-04-21T14:34:37.643Z,38.60
2023-04-21T14:37:04.613Z,38.90
2023-04-21T14:39:32.880Z,38.60
2023-04-21T14:41:59.871Z,38.40
2023-04-21T14:44:26.724Z,38.20
2023-04-21T14:47:08.374Z,38.30
2023-04-21T14:49:37.792Z,36.30
2023-04-21T14:52:05.116Z,36.00
2023-04-21T14:54:32.046Z,34.60
2023-04-21T14:57:14.740Z,33.80
2023-04-21T14:59:46.961Z,33.80
2023-04-21T15:02:14.354Z,33.70
2023-04-21T15:04:41.577Z,33.10
2023-04-21T15:07:08.761Z,32.40
2023-04-21T15:09:36.574Z,31.90
2023-04-21T15:12:03.845Z,31.50
2023-04-21T15:14:31.112Z,31.10
2023-04-21T15:16:58.221Z,30.40
2023-04-21T15:19:25.715Z,29.80
2023-04-21T15:21:53.013Z,29.70
2023-04-21T15:24:19.971Z,29.40
2023-04-21T15:26:46.907Z,29.40
2023-04-21T15:29:13.803Z,29.50
2023-04-21T15:31:41.138Z,29.00
2023-04-21T15:34:08.273Z,28.80
2023-04-21T15:36:35.812Z,28.50
2023-04-21T15:39:02.806Z,28.30
2023-04-21T15:41:31.567Z,28.30
2023-04-21T15:44:00.062Z,28.00
2023-04-21T15:46:27.091Z,27.90
2023-04-21T15:48:54.114Z,27.40
2023-04-21T15:51:21.234Z,27.30
2023-04-21T15:53:49.498Z,27.10
2023-04-21T15:56:16.822Z,27.30
2023-04-21T15:58:43.886Z,27.30
2023-04-21T16:01:11.178Z,27.10
2023-04-21T16:03:40.262Z,27.20
2023-04-21T16:06:07.856Z,27.10
2023-04-21T16:08:34.942Z,26.90
2023-04-21T16:11:02.096Z,26.80
2023-04-21T16:13:29.705Z,26.90
2023-04-21T16:15:56.771Z,27.30
2023-04-21T16:18:23.869Z,27.80
2023-04-21T16:20:51.425Z,28.80
2023-04-21T16:23:18.901Z,28.80
2023-04-21T16:25:45.819Z,29.10
2023-04-21T16:28:12.739Z,29.40
2023-04-21T16:30:43.690Z,29.30
2023-04-21T16:33:11.584Z,29.40
2023-04-21T16:35:39.470Z,29.60
2023-04-21T16:38:07.000Z,29.30
2023-04-21T16:40:34.324Z,29.30
2023-04-21T16:43:01.424Z,29.50
2023-04-21T16:45:29.176Z,29.50
2023-04-21T16:47:57.421Z,29.90
2023-04-21T16:50:24.504Z,30.20
2023-04-21T16:52:51.582Z,30.60
2023-04-21T16:58:59.030Z,31.40
2023-04-21T17:01:26.085Z,31.60
2023-04-21T17:03:53.096Z,31.50
2023-04-21T17:06:21.476Z,31.80
2023-04-21T17:08:48.893Z,31.80
2023-04-21T17:11:15.819Z,32.40
2023-04-21T17:13:42.678Z,32.30
2023-04-21T17:16:09.714Z,32.70
2023-04-21T17:18:36.678Z,33.10
2023-04-21T17:21:06.204Z,33.60
2023-04-21T17:23:34.300Z,34.00
2023-04-21T17:26:01.582Z,34.10
2023-04-21T17:28:28.454Z,34.60
2023-04-21T17:31:07.053Z,35.50
2023-04-21T17:33:40.727Z,35.10
2023-04-21T17:36:08.291Z,35.50
2023-04-21T17:38:35.485Z,35.60
2023-04-21T17:41:03.022Z,35.70
2023-04-21T17:43:29.948Z,35.80
2023-04-21T17:45:56.917Z,36.20
2023-04-21T17:48:23.853Z,36.30
2023-04-21T17:50:51.211Z,36.40
2023-04-21T17:53:18.960Z,36.60
2023-04-21T17:55:45.850Z,36.70
2023-04-21T17:58:12.902Z,37.00
2023-04-21T18:00:40.007Z,37.10
2023-04-21T18:03:07.149Z,37.40
2023-04-21T18:05:34.351Z,37.50
2023-04-21T18:08:01.424Z,37.50
2023-04-21T18:10:29.741Z,37.80
2023-04-21T18:12:57.221Z,38.10
2023-04-21T18:15:24.237Z,38.20
2023-04-21T18:17:53.027Z,38.40
2023-04-21T18:20:20.201Z,38.40
2023-04-21T18:22:47.472Z,38.80
2023-04-21T18:25:14.528Z,39.00
2023-04-21T18:27:42.392Z,39.30
2023-04-21T18:30:10.019Z,39.30
2023-04-21T18:32:37.197Z,39.60
2023-04-21T18:35:05.849Z,39.60
2023-04-21T18:37:33.092Z,39.80
2023-04-21T18:40:00.239Z,40.10
2023-04-21T18:42:27.352Z,40.20
2023-04-21T18:44:57.114Z,40.30
2023-04-21T18:47:24.964Z,40.50
2023-04-21T18:49:52.690Z,40.70
2023-04-21T18:52:19.597Z,40.90
2023-04-21T18:54:46.466Z,40.90
2023-04-21T18:57:13.376Z,41.00
2023-04-21T18:59:40.207Z,41.20
2023-04-21T19:02:07.680Z,41.30
2023-04-21T19:04:34.922Z,41.60
2023-04-21T19:07:01.995Z,41.70
2023-04-21T19:09:29.067Z,41.90
2023-04-21T19:11:56.063Z,42.00
2023-04-21T19:14:24.334Z,42.30
2023-04-21T19:16:53.045Z,42.30
2023-04-21T19:19:21.512Z,42.30
2023-04-21T19:21:50.307Z,42.60
2023-04-21T19:24:17.163Z,42.50
2023-04-21T19:26:44.157Z,42.70
2023-04-21T19:29:14.861Z,42.60
2023-04-21T19:31:42.093Z,43.00
2023-04-21T19:34:09.131Z,42.80
2023-04-21T19:36:36.010Z,43.20
2023-04-21T19:39:03.994Z,43.40
2023-04-21T19:41:31.145Z,44.20
2023-04-21T19:43:58.028Z,43.70
2023-04-21T19:46:25.017Z,43.80
2023-04-21T19:48:52.079Z,44.00
2023-04-21T19:51:19.111Z,44.30
2023-04-21T19:53:49.402Z,44.40
2023-04-21T19:56:20.949Z,44.50
2023-04-21T19:58:47.822Z,44.70
2023-04-21T20:01:14.726Z,44.70
2023-04-21T20:03:41.920Z,44.70
2023-04-21T20:06:09.002Z,45.00
2023-04-21T20:08:35.971Z,45.00
2023-04-21T20:11:02.866Z,45.00
2023-04-21T20:13:29.751Z,45.10
2023-04-21T20:15:57.344Z,45.30
2023-04-21T20:18:24.310Z,45.30
2023-04-21T20:20:51.296Z,45.40
2023-04-21T20:23:18.251Z,45.50
2023-04-21T20:25:45.129Z,45.70
2023-04-21T20:28:12.026Z,45.80
2023-04-21T20:30:38.954Z,45.90
2023-04-21T20:33:05.898Z,46.10
2023-04-21T20:35:34.300Z,46.00
2023-04-21T20:38:05.655Z,46.20
2023-04-21T20:40:35.499Z,46.10
2023-04-21T20:43:06.460Z,46.30
2023-04-21T20:45:34.532Z,46.90
2023-04-21T20:48:01.734Z,46.40
2023-04-21T20:50:28.638Z,46.50
2023-04-21T20:52:55.522Z,46.50
2023-04-21T20:55:22.461Z,46.60
2023-04-21T20:57:49.374Z,46.70
2023-04-21T21:00:16.617Z,46.50
2023-04-21T21:02:44.397Z,46.60
2023-04-21T21:05:11.532Z,46.60
2023-04-21T21:07:38.448Z,46.60
2023-04-21T21:10:05.927Z,46.60
2023-04-21T21:12:32.820Z,46.80
2023-04-21T21:14:59.674Z,46.90
2023-04-21T21:17:26.634Z,46.80
2023-04-21T21:19:53.615Z,46.90
2023-04-21T21:22:20.541Z,47.00
2023-04-21T21:24:47.461Z,47.10
2023-04-21T21:27:14.374Z,47.20
2023-04-21T21:29:41.462Z,47.20
2023-04-21T21:32:08.602Z,47.40
2023-04-21T21:34:35.625Z,47.60
2023-04-21T21:37:02.585Z,47.60
2023-04-21T21:39:29.435Z,47.70
2023-04-21T21:41:57.374Z,47.70
2023-04-21T21:44:24.269Z,47.70
2023-04-21T21:46:51.256Z,47.80
2023-04-21T21:49:18.273Z,48.00
2023-04-21T21:51:45.195Z,48.00
2023-04-21T21:54:12.077Z,48.20
2023-04-21T21:56:38.972Z,48.90
2023-04-21T21:59:07.004Z,48.30
2023-04-21T22:01:33.927Z,48.50
2023-04-21T22:04:01.244Z,48.60
2023-04-21T22:06:29.012Z,48.70
2023-04-21T22:08:55.950Z,49.00
2023-04-21T22:11:22.971Z,49.10
2023-04-21T22:13:49.884Z,49.30
2023-04-21T22:16:18.716Z,49.40
2023-04-21T22:18:48.305Z,49.50
2023-04-21T22:21:15.553Z,49.50
2023-04-21T22:23:42.531Z,49.30
2023-04-21T22:26:09.612Z,48.80
2023-04-21T22:28:36.689Z,48.70
2023-04-21T22:31:03.673Z,48.80
2023-04-21T22:33:30.594Z,48.90
2023-04-21T22:35:57.489Z,49.10
2023-04-21T22:38:24.373Z,49.30
2023-04-21T22:40:51.294Z,49.10
2023-04-21T22:43:18.225Z,49.20
2023-04-21T22:45:45.103Z,49.10
2023-04-21T22:48:14.276Z,49.20
2023-04-21T22:50:44.202Z,49.30
2023-04-21T22:53:13.315Z,49.40
2023-04-21T22:55:40.296Z,49.30
2023-04-21T22:58:07.272Z,49.20
2023-04-21T23:00:34.238Z,49.20
2023-04-21T23:03:01.369Z,49.30
2023-04-21T23:05:30.841Z,49.50
2023-04-21T23:07:57.757Z,49.60
2023-04-21T23:10:24.749Z,49.80
2023-04-21T23:12:51.666Z,50.10
2023-04-21T23:15:18.610Z,50.20
2023-04-21T23:17:45.610Z,50.40
2023-04-21T23:20:12.813Z,50.70
2023-04-21T23:22:39.834Z,50.70
2023-04-21T23:25:07.651Z,50.70
2023-04-21T23:27:34.848Z,50.60
2023-04-21T23:30:01.770Z,50.60
2023-04-21T23:32:28.813Z,50.60
2023-04-21T23:34:55.815Z,50.60
2023-04-21T23:37:22.690Z,50.50
2023-04-21T23:39:49.516Z,50.50
2023-04-21T23:42:16.449Z,50.60
2023-04-21T23:44:43.435Z,50.70
2023-04-21T23:47:10.623Z,50.90
2023-04-21T23:49:38.071Z,51.10
2023-04-21T23:52:05.265Z,51.20
2023-04-21T23:54:32.587Z,51.40
2023-04-21T23:56:59.580Z,51.40
2023-04-21T23:59:26.717Z,51.40
